Time;durP1;ratioP1;P1;durP2;ratioP2;P2;SDS_P1;SDS_P2;PMS_P1;PMS_P2;Temp;Humidity;BMP_temperature;BMP_pressure;BME280_temperature;BME280_humidity;BME280_pressure;Samples;Min_cycle;Max_cycle;Signal;HPM_P1;HPM_P2
2024/01/28 00:02:00;;;;;;;9.07;6.17;;;;;;;;;;5049290;28;20313;-83
2024/01/28 00:04:27;;;;;;;10.10;6.83;;;;;;;;;;5051319;28;20213;-83
2024/01/28 00:06:54;;;;;;;12.40;6.87;;;;;;;;;;5050741;28;20720;-83
2024/01/28 00:09:22;;;;;;;10.13;6.90;;;;;;;;;;5051039;28;20670;-82
2024/01/28 00:11:49;;;;;;;12.60;5.70;;;;;;;;;;5050578;28;20239;-83
2024/01/28 00:14:16;;;;;;;7.43;6.00;;;;;;;;;;5051461;28;20574;-83
2024/01/28 00:16:43;;;;;;;8.80;6.57;;;;;;;;;;5050873;28;20242;-83
2024/01/28 00:19:10;;;;;;;6.60;5.93;;;;;;;;;;5050561;28;20239;-83
2024/01/28 00:21:37;;;;;;;14.70;6.50;;;;;;;;;;5043223;28;20241;-82
2024/01/28 00:24:06;;;;;;;7.37;5.33;;;;;;;;;;5043093;28;20197;-83
2024/01/28 00:26:39;;;;;;;6.10;5.50;;;;;;;;;;5043404;28;20237;-83
2024/01/28 00:29:06;;;;;;;9.80;6.70;;;;;;;;;;5051759;28;20731;-82
2024/01/28 00:31:34;;;;;;;7.40;5.63;;;;;;;;;;5051227;28;20732;-83
2024/01/28 00:34:01;;;;;;;13.83;7.40;;;;;;;;;;5051288;28;20280;-83
2024/01/28 00:36:28;;;;;;;9.57;5.67;;;;;;;;;;5050712;28;20623;-83
2024/01/28 00:38:55;;;;;;;9.20;5.67;;;;;;;;;;5051065;28;20218;-83
2024/01/28 00:41:23;;;;;;;12.13;6.03;;;;;;;;;;5050692;28;20238;-82
2024/01/28 00:43:52;;;;;;;9.63;6.40;;;;;;;;;;5051925;28;20194;-83
2024/01/28 00:46:20;;;;;;;7.40;6.23;;;;;;;;;;5050140;28;20317;-82
2024/01/28 00:48:47;;;;;;;7.70;6.20;;;;;;;;;;5051180;28;20252;-83
2024/01/28 00:51:14;;;;;;;10.03;6.50;;;;;;;;;;5050983;28;20229;-82
2024/01/28 00:53:41;;;;;;;12.37;7.10;;;;;;;;;;5051325;28;20234;-83
2024/01/28 00:56:08;;;;;;;10.87;6.53;;;;;;;;;;5050728;28;20229;-83
2024/01/28 00:58:36;;;;;;;10.97;6.00;;;;;;;;;;5051310;28;20206;-83
2024/01/28 01:01:05;;;;;;;10.53;6.40;;;;;;;;;;5054537;28;20766;-82
2024/01/28 01:03:32;;;;;;;10.10;5.97;;;;;;;;;;5052124;28;20285;-83
2024/01/28 01:05:59;;;;;;;9.70;5.93;;;;;;;;;;5054281;28;20226;-83
2024/01/28 01:08:26;;;;;;;17.80;6.90;;;;;;;;;;5054666;28;20681;-83
2024/01/28 01:10:53;;;;;;;9.20;6.00;;;;;;;;;;5053987;28;20233;-83
2024/01/28 01:13:20;;;;;;;13.17;6.87;;;;;;;;;;5054407;28;20218;-83
2024/01/28 01:15:47;;;;;;;12.40;7.83;;;;;;;;;;5047287;28;20226;-83
2024/01/28 01:18:15;;;;;;;16.63;8.73;;;;;;;;;;5054187;28;20209;-82
2024/01/28 01:20:42;;;;;;;15.57;7.27;;;;;;;;;;5053640;28;20283;-83
2024/01/28 01:23:10;;;;;;;11.47;7.13;;;;;;;;;;5054247;28;20727;-83
2024/01/28 01:25:37;;;;;;;9.47;6.10;;;;;;;;;;5053990;28;20232;-83
2024/01/28 01:28:04;;;;;;;12.70;7.00;;;;;;;;;;5053902;28;20259;-84
2024/01/28 01:30:32;;;;;;;7.47;6.30;;;;;;;;;;5053490;28;20238;-84
2024/01/28 01:32:59;;;;;;;10.03;6.43;;;;;;;;;;5054162;28;20234;-83
2024/01/28 01:35:27;;;;;;;9.43;6.77;;;;;;;;;;5053918;28;20230;-83
2024/01/28 01:37:55;;;;;;;10.60;7.30;;;;;;;;;;5054176;28;20202;-83
2024/01/28 01:40:22;;;;;;;10.27;6.77;;;;;;;;;;5053084;28;20648;-83
2024/01/28 01:42:49;;;;;;;10.03;6.13;;;;;;;;;;5053995;28;20236;-84
2024/01/28 01:45:16;;;;;;;13.00;7.57;;;;;;;;;;5053383;28;20255;-83
2024/01/28 01:47:44;;;;;;;12.50;6.60;;;;;;;;;;5054045;28;20202;-83
2024/01/28 01:50:12;;;;;;;10.73;6.10;;;;;;;;;;5053305;28;20209;-83
2024/01/28 01:52:41;;;;;;;10.17;7.07;;;;;;;;;;5051061;28;20234;-84
2024/01/28 01:55:09;;;;;;;12.77;6.97;;;;;;;;;;5053477;28;20206;-83
2024/01/28 01:57:37;;;;;;;11.13;6.73;;;;;;;;;;5048569;28;20206;-83
2024/01/28 02:00:04;;;;;;;8.60;6.00;;;;;;;;;;5051765;28;20209;-85
2024/01/28 02:02:31;;;;;;;10.73;6.50;;;;;;;;;;5054316;28;20244;-84
2024/01/28 02:04:58;;;;;;;6.93;6.23;;;;;;;;;;5055138;28;20199;-83
2024/01/28 02:07:26;;;;;;;8.20;5.67;;;;;;;;;;5052157;28;20222;-83
2024/01/28 02:09:54;;;;;;;5.63;5.10;;;;;;;;;;5053774;28;20206;-83
2024/01/28 02:12:21;;;;;;;7.83;5.40;;;;;;;;;;5052693;28;20230;-84
2024/01/28 02:14:49;;;;;;;13.23;5.93;;;;;;;;;;5053039;28;20207;-83
2024/01/28 02:17:16;;;;;;;9.67;6.93;;;;;;;;;;5052465;28;20237;-84
2024/01/28 02:19:43;;;;;;;10.37;6.63;;;;;;;;;;5053135;28;20218;-84
2024/01/28 02:22:11;;;;;;;8.17;6.00;;;;;;;;;;5050276;28;20229;-85
2024/01/28 02:24:40;;;;;;;6.33;5.23;;;;;;;;;;5053188;28;20216;-84
2024/01/28 02:27:07;;;;;;;10.20;7.17;;;;;;;;;;5052634;28;20250;-83
2024/01/28 02:29:34;;;;;;;9.17;6.20;;;;;;;;;;5053083;28;20209;-84
2024/01/28 02:32:01;;;;;;;8.87;6.03;;;;;;;;;;5044379;28;20230;-83
2024/01/28 02:34:28;;;;;;;11.40;6.53;;;;;;;;;;5052984;28;20226;-84
2024/01/28 02:36:55;;;;;;;7.07;6.33;;;;;;;;;;5048870;28;20221;-84
2024/01/28 02:39:22;;;;;;;8.23;6.27;;;;;;;;;;5052777;28;20206;-84
2024/01/28 02:41:50;;;;;;;13.23;5.30;;;;;;;;;;5052325;28;20245;-84
2024/01/28 02:44:17;;;;;;;17.90;6.00;;;;;;;;;;5053019;28;20198;-85
2024/01/28 02:46:44;;;;;;;8.63;5.33;;;;;;;;;;5052714;28;20233;-84
2024/01/28 02:49:11;;;;;;;9.50;6.60;;;;;;;;;;5052610;28;20206;-84
2024/01/28 02:51:38;;;;;;;7.90;5.63;;;;;;;;;;5052341;28;20317;-84
2024/01/28 02:54:05;;;;;;;6.17;5.50;;;;;;;;;;5052658;28;20598;-83
2024/01/28 02:56:33;;;;;;;7.93;5.63;;;;;;;;;;5052359;28;20639;-83
2024/01/28 02:59:01;;;;;;;5.30;4.67;;;;;;;;;;5052631;28;20198;-84
2024/01/28 03:01:28;;;;;;;7.57;5.37;;;;;;;;;;5052051;28;20249;-84
2024/01/28 03:03:55;;;;;;;9.77;5.90;;;;;;;;;;5052616;28;20198;-84
2024/01/28 03:06:23;;;;;;;13.30;6.73;;;;;;;;;;5052297;28;20218;-83
2024/01/28 03:08:50;;;;;;;8.03;5.87;;;;;;;;;;5052369;28;20197;-84
2024/01/28 03:11:17;;;;;;;7.63;5.97;;;;;;;;;;5052022;28;20233;-84
2024/01/28 03:13:44;;;;;;;6.90;4.83;;;;;;;;;;5052234;28;20253;-84
2024/01/28 03:16:12;;;;;;;8.87;5.53;;;;;;;;;;5052197;28;20361;-84
2024/01/28 03:18:39;;;;;;;12.40;5.37;;;;;;;;;;5052362;28;20206;-83
2024/01/28 03:21:07;;;;;;;11.23;7.20;;;;;;;;;;5051556;28;20238;-84
2024/01/28 03:23:35;;;;;;;7.27;5.10;;;;;;;;;;5052120;28;20551;-84
2024/01/28 03:26:02;;;;;;;10.07;6.07;;;;;;;;;;5052037;28;20236;-83
2024/01/28 03:28:29;;;;;;;8.00;5.43;;;;;;;;;;5051760;28;20256;-84
2024/01/28 03:30:56;;;;;;;11.77;5.63;;;;;;;;;;5051414;28;20240;-84
2024/01/28 03:33:25;;;;;;;5.73;5.23;;;;;;;;;;5051932;28;20234;-84
2024/01/28 03:35:52;;;;;;;10.00;6.40;;;;;;;;;;5051868;28;20607;-85
2024/01/28 03:38:19;;;;;;;8.20;6.53;;;;;;;;;;5051954;28;20209;-84
2024/01/28 03:40:46;;;;;;;8.70;5.93;;;;;;;;;;5032484;28;20544;-84
2024/01/28 03:43:13;;;;;;;7.40;5.97;;;;;;;;;;5049849;28;20221;-84
2024/01/28 03:45:40;;;;;;;9.40;5.57;;;;;;;;;;5069817;28;20226;-84
2024/01/28 03:48:07;;;;;;;7.27;5.33;;;;;;;;;;5072459;28;20252;-84
2024/01/28 03:50:36;;;;;;;5.60;5.10;;;;;;;;;;5051680;28;20241;-84
2024/01/28 03:53:04;;;;;;;10.63;5.60;;;;;;;;;;5052025;28;20226;-84
2024/01/28 03:55:31;;;;;;;9.93;5.30;;;;;;;;;;5051695;28;20233;-84
2024/01/28 03:57:58;;;;;;;7.10;6.00;;;;;;;;;;5051812;28;20570;-84
2024/01/28 04:00:28;;;;;;;8.17;5.40;;;;;;;;;;5051425;28;20230;-83
2024/01/28 04:02:56;;;;;;;8.23;5.57;;;;;;;;;;5052220;28;20247;-84
2024/01/28 04:05:23;;;;;;;12.00;6.50;;;;;;;;;;5051273;28;20303;-84
2024/01/28 04:07:52;;;;;;;6.07;5.43;;;;;;;;;;5048807;28;20225;-84
2024/01/28 04:10:19;;;;;;;5.97;5.17;;;;;;;;;;5051698;28;20210;-83
2024/01/28 04:12:47;;;;;;;8.00;5.10;;;;;;;;;;5051789;28;20728;-84
2024/01/28 04:15:14;;;;;;;8.27;5.60;;;;;;;;;;5051207;28;20230;-83
2024/01/28 04:17:41;;;;;;;6.33;5.30;;;;;;;;;;5051441;28;20288;-83
2024/01/28 04:20:09;;;;;;;8.43;6.07;;;;;;;;;;5044307;28;20203;-84
2024/01/28 04:22:36;;;;;;;7.17;5.47;;;;;;;;;;5050166;28;20226;-84
2024/01/28 04:25:05;;;;;;;5.90;5.07;;;;;;;;;;5051003;28;20206;-85
2024/01/28 04:27:32;;;;;;;7.93;5.63;;;;;;;;;;5051241;28;20198;-84
2024/01/28 04:29:59;;;;;;;9.10;5.40;;;;;;;;;;5051571;28;20297;-84
2024/01/28 04:32:26;;;;;;;9.20;5.40;;;;;;;;;;5050933;28;20316;-84
2024/01/28 04:34:53;;;;;;;9.93;5.97;;;;;;;;;;5051425;28;20232;-84
2024/01/28 04:37:22;;;;;;;5.90;4.73;;;;;;;;;;5050994;28;20253;-84
2024/01/28 04:39:49;;;;;;;7.40;5.67;;;;;;;;;;5046689;28;20202;-84
2024/01/28 04:42:22;;;;;;;6.10;5.60;;;;;;;;;;5054569;28;20241;-84
2024/01/28 04:44:49;;;;;;;6.13;5.60;;;;;;;;;;5047649;28;20214;-84
2024/01/28 04:47:16;;;;;;;6.27;5.40;;;;;;;;;;5054664;28;20258;-83
2024/01/28 04:49:43;;;;;;;7.03;4.93;;;;;;;;;;5054938;28;20668;-84
2024/01/28 04:52:10;;;;;;;6.00;4.57;;;;;;;;;;5047858;28;20230;-82
2024/01/28 04:54:37;;;;;;;9.73;5.80;;;;;;;;;;5054872;28;20257;-83
2024/01/28 04:57:05;;;;;;;7.97;6.33;;;;;;;;;;5054621;28;20250;-83
2024/01/28 04:59:34;;;;;;;6.47;5.87;;;;;;;;;;5054528;28;20779;-83
2024/01/28 05:02:01;;;;;;;7.07;5.97;;;;;;;;;;5054448;28;20598;-82
2024/01/28 05:04:28;;;;;;;6.47;4.47;;;;;;;;;;5050991;28;20202;-83
2024/01/28 05:06:55;;;;;;;5.60;5.10;;;;;;;;;;5054462;28;20225;-83
2024/01/28 05:09:22;;;;;;;8.60;5.67;;;;;;;;;;5054519;28;20256;-83
2024/01/28 05:11:50;;;;;;;6.00;5.23;;;;;;;;;;5046132;28;20287;-83
2024/01/28 05:14:17;;;;;;;8.17;5.93;;;;;;;;;;5054652;28;20381;-83
2024/01/28 05:16:47;;;;;;;7.53;6.50;;;;;;;;;;5054349;28;20261;-83
2024/01/28 05:19:14;;;;;;;7.77;5.77;;;;;;;;;;5054352;28;20260;-83
2024/01/28 05:21:41;;;;;;;6.47;4.60;;;;;;;;;;5054149;28;20237;-83
2024/01/28 05:24:08;;;;;;;6.40;5.07;;;;;;;;;;5054772;28;20209;-83
2024/01/28 05:26:37;;;;;;;5.60;4.80;;;;;;;;;;5053876;28;20716;-83
2024/01/28 05:29:05;;;;;;;8.87;5.17;;;;;;;;;;5048061;28;20216;-83
2024/01/28 05:31:32;;;;;;;5.40;4.67;;;;;;;;;;5053241;28;20299;-83
2024/01/28 05:34:01;;;;;;;6.10;5.37;;;;;;;;;;5054474;28;20218;-83
2024/01/28 05:36:28;;;;;;;5.20;4.77;;;;;;;;;;5053383;28;20316;-83
2024/01/28 05:38:55;;;;;;;8.53;5.93;;;;;;;;;;5054543;28;20202;-83
2024/01/28 05:41:23;;;;;;;8.93;4.50;;;;;;;;;;5054255;28;20234;-83
2024/01/28 05:43:50;;;;;;;7.37;4.27;;;;;;;;;;5056962;28;20236;-84
2024/01/28 05:46:17;;;;;;;6.03;5.33;;;;;;;;;;5071012;28;20229;-83
2024/01/28 05:48:44;;;;;;;6.90;5.73;;;;;;;;;;5078389;28;20206;-83
2024/01/28 05:51:12;;;;;;;10.07;5.07;;;;;;;;;;5054117;28;20234;-83
2024/01/28 05:53:39;;;;;;;5.90;4.20;;;;;;;;;;5054015;28;20229;-83
2024/01/28 05:56:07;;;;;;;10.50;5.07;;;;;;;;;;5053578;28;20229;-83
2024/01/28 05:58:34;;;;;;;7.30;5.83;;;;;;;;;;5053948;28;20202;-84
2024/01/28 06:01:06;;;;;;;6.03;5.37;;;;;;;;;;5053522;28;20226;-83
2024/01/28 06:03:33;;;;;;;5.53;4.83;;;;;;;;;;5054227;28;20206;-83
2024/01/28 06:06:01;;;;;;;9.63;5.30;;;;;;;;;;5053666;28;20226;-83
2024/01/28 06:08:29;;;;;;;5.47;4.87;;;;;;;;;;5053661;28;20761;-84
2024/01/28 06:10:56;;;;;;;5.43;4.63;;;;;;;;;;5052983;28;20303;-83
2024/01/28 06:13:23;;;;;;;4.90;4.40;;;;;;;;;;5053763;28;20202;-84
2024/01/28 06:15:51;;;;;;;5.00;4.43;;;;;;;;;;5044865;28;20959;-83
2024/01/28 06:18:19;;;;;;;6.77;5.23;;;;;;;;;;5053953;28;20202;-83
2024/01/28 06:20:46;;;;;;;5.30;4.83;;;;;;;;;;5044472;28;20316;-83
2024/01/28 06:23:13;;;;;;;7.13;5.23;;;;;;;;;;5053603;28;20213;-83
2024/01/28 06:25:41;;;;;;;7.77;5.03;;;;;;;;;;5052953;28;20284;-83
2024/01/28 06:28:08;;;;;;;12.53;5.93;;;;;;;;;;5053435;28;20202;-84
2024/01/28 06:30:35;;;;;;;10.13;5.37;;;;;;;;;;5044848;28;20627;-83
2024/01/28 06:33:03;;;;;;;6.83;6.13;;;;;;;;;;5053037;28;20256;-83
2024/01/28 06:35:30;;;;;;;7.33;4.80;;;;;;;;;;5053125;28;20284;-83
2024/01/28 06:37:57;;;;;;;6.37;5.13;;;;;;;;;;5051725;28;20257;-82
2024/01/28 06:40:24;;;;;;;6.13;5.53;;;;;;;;;;5052599;28;20229;-83
2024/01/28 06:42:53;;;;;;;5.10;4.67;;;;;;;;;;5053127;28;20218;-84
2024/01/28 06:45:20;;;;;;;7.30;5.87;;;;;;;;;;5048139;28;20198;-82
2024/01/28 06:47:47;;;;;;;6.73;6.10;;;;;;;;;;5052833;28;20202;-83
2024/01/28 06:50:14;;;;;;;8.10;5.90;;;;;;;;;;5049332;28;20384;-83
2024/01/28 06:52:43;;;;;;;7.83;5.97;;;;;;;;;;5052952;28;20299;-81
2024/01/28 06:55:10;;;;;;;9.90;6.23;;;;;;;;;;5052099;28;20222;-82
2024/01/28 06:57:37;;;;;;;6.90;5.53;;;;;;;;;;5053047;28;20261;-82
2024/01/28 07:00:10;;;;;;;7.07;6.00;;;;;;;;;;5048691;28;20199;-83
2024/01/28 07:02:37;;;;;;;13.23;5.87;;;;;;;;;;5052370;28;20236;-82
2024/01/28 07:05:04;;;;;;;8.30;5.80;;;;;;;;;;5051956;28;20202;-83
2024/01/28 07:07:31;;;;;;;8.77;6.67;;;;;;;;;;5052371;28;20198;-80
2024/01/28 07:09:58;;;;;;;10.23;6.50;;;;;;;;;;5051551;28;20204;-80
2024/01/28 07:12:25;;;;;;;8.33;6.10;;;;;;;;;;5051639;28;20230;-81
2024/01/28 07:14:52;;;;;;;7.73;6.50;;;;;;;;;;5052209;28;20969;-81
2024/01/28 07:17:21;;;;;;;10.93;5.53;;;;;;;;;;5044071;28;20263;-81
2024/01/28 07:19:48;;;;;;;8.53;6.27;;;;;;;;;;5051780;28;20214;-81
2024/01/28 07:22:15;;;;;;;16.47;6.10;;;;;;;;;;5051239;28;20232;-81
2024/01/28 07:24:42;;;;;;;10.83;6.57;;;;;;;;;;5052417;28;20592;-82
2024/01/28 07:27:09;;;;;;;8.30;6.97;;;;;;;;;;5043405;28;20312;-82
2024/01/28 07:29:36;;;;;;;12.40;6.13;;;;;;;;;;5043562;28;20202;-80
2024/01/28 07:32:03;;;;;;;9.73;6.17;;;;;;;;;;5050962;28;20295;-80
2024/01/28 07:34:32;;;;;;;9.37;6.03;;;;;;;;;;5051949;28;20295;-80
2024/01/28 07:36:59;;;;;;;8.10;5.67;;;;;;;;;;5051265;28;20228;-80
2024/01/28 07:39:27;;;;;;;9.40;6.03;;;;;;;;;;5051574;28;20206;-80
2024/01/28 07:41:54;;;;;;;9.80;6.70;;;;;;;;;;5051164;28;20777;-80
2024/01/28 07:44:21;;;;;;;9.80;6.53;;;;;;;;;;5040772;28;20209;-80
2024/01/28 07:46:48;;;;;;;8.57;6.03;;;;;;;;;;5054980;28;20225;-81
2024/01/28 07:49:16;;;;;;;13.93;6.43;;;;;;;;;;5058296;28;20202;-80
2024/01/28 07:51:44;;;;;;;13.30;6.17;;;;;;;;;;5047204;28;20231;-80
2024/01/28 07:54:11;;;;;;;18.70;7.07;;;;;;;;;;5046112;28;20252;-80
2024/01/28 07:56:39;;;;;;;14.73;6.77;;;;;;;;;;5048746;28;20230;-80
2024/01/28 07:59:06;;;;;;;8.00;6.03;;;;;;;;;;5051504;28;20210;-80
2024/01/28 08:01:33;;;;;;;8.67;7.10;;;;;;;;;;5050882;28;20264;-80
2024/01/28 08:04:00;;;;;;;13.87;8.10;;;;;;;;;;5048040;28;20199;-80
2024/01/28 08:06:27;;;;;;;11.17;8.33;;;;;;;;;;5041747;28;20230;-80
2024/01/28 08:08:56;;;;;;;16.63;7.07;;;;;;;;;;5051491;28;20240;-80
2024/01/28 08:11:23;;;;;;;10.10;7.90;;;;;;;;;;5048545;28;20372;-80
2024/01/28 08:13:50;;;;;;;19.73;8.13;;;;;;;;;;5052604;28;20599;-80
2024/01/28 08:16:17;;;;;;;12.23;7.90;;;;;;;;;;5055061;28;20226;-80
2024/01/28 08:18:45;;;;;;;10.03;7.33;;;;;;;;;;5053688;28;20668;-80
2024/01/28 08:21:12;;;;;;;15.43;8.67;;;;;;;;;;5048768;28;20286;-80
2024/01/28 08:23:39;;;;;;;17.17;8.57;;;;;;;;;;5055227;28;20216;-81
2024/01/28 08:26:09;;;;;;;12.10;8.57;;;;;;;;;;5054912;28;20225;-81
2024/01/28 08:28:36;;;;;;;14.60;8.20;;;;;;;;;;5055723;28;20205;-80
2024/01/28 08:31:03;;;;;;;25.97;8.10;;;;;;;;;;5054426;28;20225;-80
2024/01/28 08:33:30;;;;;;;22.37;9.03;;;;;;;;;;5055218;28;20213;-79
2024/01/28 08:35:57;;;;;;;20.73;8.73;;;;;;;;;;5054536;28;20225;-80
2024/01/28 08:38:25;;;;;;;14.13;9.97;;;;;;;;;;5046896;28;20208;-80
2024/01/28 08:40:52;;;;;;;14.37;8.40;;;;;;;;;;5054370;28;20318;-80
2024/01/28 08:43:20;;;;;;;17.87;8.47;;;;;;;;;;5055151;28;20565;-80
2024/01/28 08:45:47;;;;;;;19.47;8.43;;;;;;;;;;5044433;28;20237;-80
2024/01/28 08:48:14;;;;;;;12.87;8.33;;;;;;;;;;5051152;28;20203;-80
2024/01/28 08:50:41;;;;;;;14.90;7.43;;;;;;;;;;5054167;28;20233;-80
2024/01/28 08:53:08;;;;;;;17.27;8.60;;;;;;;;;;5054646;28;20633;-80
2024/01/28 08:55:35;;;;;;;16.17;7.70;;;;;;;;;;5054227;28;20244;-79
2024/01/28 08:58:02;;;;;;;15.77;8.17;;;;;;;;;;5046598;28;20207;-79
2024/01/28 09:00:31;;;;;;;19.97;8.83;;;;;;;;;;5053820;28;20242;-80
2024/01/28 09:02:58;;;;;;;16.07;8.20;;;;;;;;;;5054538;28;20225;-80
2024/01/28 09:05:25;;;;;;;16.27;8.13;;;;;;;;;;5049013;28;20597;-80
2024/01/28 09:07:52;;;;;;;18.67;8.83;;;;;;;;;;5046371;28;20196;-81
2024/01/28 09:10:19;;;;;;;21.03;9.80;;;;;;;;;;5053874;28;20202;-81
2024/01/28 09:12:46;;;;;;;27.17;10.20;;;;;;;;;;5054263;28;20766;-81
2024/01/28 09:15:13;;;;;;;16.47;9.93;;;;;;;;;;5048901;28;20215;-80
2024/01/28 09:17:42;;;;;;;13.03;8.33;;;;;;;;;;5045963;28;20553;-83
2024/01/28 09:20:10;;;;;;;25.60;10.83;;;;;;;;;;5053405;28;20209;-81
2024/01/28 09:22:37;;;;;;;20.27;8.87;;;;;;;;;;5054068;28;20230;-83
2024/01/28 09:25:04;;;;;;;16.20;8.70;;;;;;;;;;5049383;28;20207;-81
2024/01/28 09:27:31;;;;;;;19.23;10.43;;;;;;;;;;5049898;28;20215;-82
2024/01/28 09:29:58;;;;;;;30.60;10.33;;;;;;;;;;5046755;28;20206;-81
2024/01/28 09:32:25;;;;;;;14.37;10.03;;;;;;;;;;5046802;28;20851;-81
2024/01/28 09:34:54;;;;;;;16.87;11.40;;;;;;;;;;5052612;28;20257;-80
2024/01/28 09:37:21;;;;;;;26.67;10.37;;;;;;;;;;5047525;28;20234;-80
2024/01/28 09:39:48;;;;;;;28.90;11.27;;;;;;;;;;5048854;28;20653;-79
2024/01/28 09:42:18;;;;;;;23.03;10.73;;;;;;;;;;5053212;28;20246;-80
2024/01/28 09:44:47;;;;;;;18.43;11.43;;;;;;;;;;5051466;28;20191;-80
2024/01/28 09:47:14;;;;;;;21.87;11.70;;;;;;;;;;5053028;28;20234;-80
2024/01/28 09:49:42;;;;;;;25.47;11.17;;;;;;;;;;5050425;28;20206;-80
2024/01/28 09:52:11;;;;;;;24.63;10.53;;;;;;;;;;5044840;28;20230;-80
2024/01/28 09:54:39;;;;;;;23.27;10.63;;;;;;;;;;5045299;28;20207;-80
2024/01/28 09:57:06;;;;;;;33.43;12.90;;;;;;;;;;5041489;28;20855;-81
2024/01/28 09:59:35;;;;;;;26.20;11.83;;;;;;;;;;5041907;28;20276;-81
2024/01/28 10:02:03;;;;;;;24.33;12.47;;;;;;;;;;5044365;28;20230;-80
2024/01/28 10:04:30;;;;;;;28.83;12.20;;;;;;;;;;5045334;28;20205;-80
2024/01/28 10:06:59;;;;;;;30.87;10.30;;;;;;;;;;5042582;28;20236;-80
2024/01/28 10:09:27;;;;;;;24.13;12.67;;;;;;;;;;5045281;28;20211;-80
2024/01/28 10:11:55;;;;;;;32.23;11.83;;;;;;;;;;5052613;28;20707;-80
2024/01/28 10:14:22;;;;;;;22.60;11.63;;;;;;;;;;5047713;28;20201;-80
2024/01/28 10:16:50;;;;;;;27.00;13.33;;;;;;;;;;5042208;28;20237;-80
2024/01/28 10:19:17;;;;;;;21.17;11.67;;;;;;;;;;5044723;28;20296;-80
2024/01/28 10:21:44;;;;;;;32.53;12.17;;;;;;;;;;5043784;28;20694;-81
2024/01/28 10:24:12;;;;;;;28.43;12.20;;;;;;;;;;5041688;28;20216;-79
2024/01/28 10:26:40;;;;;;;21.00;12.30;;;;;;;;;;5041083;28;20620;-80
2024/01/28 10:29:09;;;;;;;26.90;12.77;;;;;;;;;;5041512;28;20213;-79
2024/01/28 10:31:36;;;;;;;31.67;14.00;;;;;;;;;;5040291;28;20702;-79
2024/01/28 10:34:04;;;;;;;26.37;12.90;;;;;;;;;;5041513;28;20206;-80
2024/01/28 10:36:33;;;;;;;22.83;13.03;;;;;;;;;;5039672;28;20666;-80
2024/01/28 10:39:03;;;;;;;21.97;12.70;;;;;;;;;;5043596;28;20727;-80
2024/01/28 10:41:31;;;;;;;31.77;13.53;;;;;;;;;;5046386;28;20233;-81
2024/01/28 10:44:01;;;;;;;26.27;11.97;;;;;;;;;;5044480;28;20213;-80
2024/01/28 10:46:31;;;;;;;24.70;13.13;;;;;;;;;;5049342;28;20256;-80
2024/01/28 10:48:59;;;;;;;28.43;12.97;;;;;;;;;;5044640;28;20195;-79
2024/01/28 10:51:26;;;;;;;25.10;12.17;;;;;;;;;;5044053;28;20236;-80
2024/01/28 10:53:54;;;;;;;21.47;13.20;;;;;;;;;;5042531;28;20213;-80
2024/01/28 10:56:21;;;;;;;36.23;12.87;;;;;;;;;;5040158;28;20226;-80
2024/01/28 10:58:48;;;;;;;25.13;11.63;;;;;;;;;;5041566;28;20202;-80
2024/01/28 11:01:17;;;;;;;22.13;11.73;;;;;;;;;;5043684;28;20279;-79
2024/01/28 11:03:45;;;;;;;21.50;11.60;;;;;;;;;;5044258;28;20198;-80
2024/01/28 11:06:12;;;;;;;17.50;10.37;;;;;;;;;;5043173;28;20590;-80
2024/01/28 11:08:39;;;;;;;22.57;11.10;;;;;;;;;;5040860;28;20226;-80
2024/01/28 11:11:06;;;;;;;19.90;10.30;;;;;;;;;;5043175;28;20226;-79
2024/01/28 11:13:33;;;;;;;20.13;9.97;;;;;;;;;;5043929;28;20198;-80
2024/01/28 11:16:01;;;;;;;17.67;9.60;;;;;;;;;;5043363;28;20245;-80
2024/01/28 11:18:32;;;;;;;13.03;8.47;;;;;;;;;;5044113;28;20198;-79
2024/01/28 11:20:59;;;;;;;19.53;9.90;;;;;;;;;;5042955;28;20230;-81
2024/01/28 11:23:30;;;;;;;15.33;9.57;;;;;;;;;;5050000;28;20214;-82
2024/01/28 11:25:59;;;;;;;13.83;8.17;;;;;;;;;;5051519;28;20236;-82
2024/01/28 11:28:27;;;;;;;9.93;7.53;;;;;;;;;;5043897;28;20209;-80
2024/01/28 11:30:57;;;;;;;11.50;8.40;;;;;;;;;;5050457;28;20234;-82
2024/01/28 11:33:24;;;;;;;13.37;7.70;;;;;;;;;;5051268;28;20202;-82
2024/01/28 11:35:53;;;;;;;14.70;6.67;;;;;;;;;;5041981;28;20231;-81
2024/01/28 11:38:21;;;;;;;13.27;6.60;;;;;;;;;;5044174;28;20216;-81
2024/01/28 11:40:48;;;;;;;8.07;5.33;;;;;;;;;;5042390;28;20264;-81
2024/01/28 11:43:15;;;;;;;7.57;5.47;;;;;;;;;;5051150;28;20206;-81
2024/01/28 11:45:42;;;;;;;7.43;4.87;;;;;;;;;;5050507;28;20779;-82
2024/01/28 11:48:11;;;;;;;6.83;5.10;;;;;;;;;;5050488;28;20684;-82
2024/01/28 11:50:39;;;;;;;4.67;4.20;;;;;;;;;;5049440;28;20233;-81
2024/01/28 11:53:09;;;;;;;11.10;5.63;;;;;;;;;;5050106;28;20598;-83
2024/01/28 11:55:36;;;;;;;7.00;4.93;;;;;;;;;;5049618;28;20241;-82
2024/01/28 11:58:03;;;;;;;7.07;5.10;;;;;;;;;;5049932;28;20216;-82
2024/01/28 12:00:30;;;;;;;8.47;4.57;;;;;;;;;;5044331;28;20237;-83
2024/01/28 12:02:57;;;;;;;8.10;5.00;;;;;;;;;;5048826;28;20221;-83
2024/01/28 12:05:24;;;;;;;6.67;4.60;;;;;;;;;;5045407;28;20239;-82
2024/01/28 12:07:54;;;;;;;6.63;4.73;;;;;;;;;;5041662;28;20235;-82
2024/01/28 12:10:22;;;;;;;10.50;4.70;;;;;;;;;;5049189;28;20208;-84
2024/01/28 12:12:50;;;;;;;6.63;4.10;;;;;;;;;;5050569;28;20235;-82
2024/01/28 12:15:17;;;;;;;6.43;4.60;;;;;;;;;;5049777;28;20206;-82
2024/01/28 12:17:45;;;;;;;4.43;3.97;;;;;;;;;;5050926;28;20273;-82
2024/01/28 12:20:20;;;;;;;9.27;5.00;;;;;;;;;;5048885;28;20209;-82
2024/01/28 12:22:47;;;;;;;6.67;4.37;;;;;;;;;;5050520;28;20290;-82
2024/01/28 12:25:14;;;;;;;4.70;4.30;;;;;;;;;;5042185;28;20206;-82
2024/01/28 12:27:43;;;;;;;6.73;4.20;;;;;;;;;;5050423;28;20204;-82
2024/01/28 12:30:11;;;;;;;10.13;4.53;;;;;;;;;;5048980;28;20204;-82
2024/01/28 12:32:38;;;;;;;7.80;4.00;;;;;;;;;;5042432;28;20240;-82
2024/01/28 12:35:07;;;;;;;5.93;4.10;;;;;;;;;;5049535;28;20677;-82
2024/01/28 12:37:34;;;;;;;8.40;4.10;;;;;;;;;;5050591;28;20261;-83
2024/01/28 12:40:01;;;;;;;3.90;3.60;;;;;;;;;;5046747;28;20216;-82
2024/01/28 12:42:29;;;;;;;5.47;3.80;;;;;;;;;;5050040;28;20627;-82
2024/01/28 12:44:58;;;;;;;6.47;4.10;;;;;;;;;;5049913;28;20206;-82
2024/01/28 12:47:25;;;;;;;10.17;4.20;;;;;;;;;;5049475;28;20700;-82
2024/01/28 12:49:52;;;;;;;6.90;3.63;;;;;;;;;;5047909;28;20216;-83
2024/01/28 12:52:19;;;;;;;4.23;3.90;;;;;;;;;;5049906;28;20248;-82
2024/01/28 12:54:46;;;;;;;6.00;3.80;;;;;;;;;;5049936;28;20214;-82
2024/01/28 12:57:13;;;;;;;7.13;3.70;;;;;;;;;;5049819;28;20229;-82
2024/01/28 12:59:41;;;;;;;5.97;3.97;;;;;;;;;;5049644;28;20230;-82
2024/01/28 13:02:09;;;;;;;6.27;3.50;;;;;;;;;;5053607;28;20234;-82
2024/01/28 13:04:37;;;;;;;6.17;3.90;;;;;;;;;;5053766;28;20210;-82
2024/01/28 13:07:04;;;;;;;4.10;3.77;;;;;;;;;;5045109;28;20233;-83
2024/01/28 13:09:31;;;;;;;5.47;3.97;;;;;;;;;;5049892;28;20237;-83
2024/01/28 13:11:58;;;;;;;5.10;3.60;;;;;;;;;;5056261;28;20243;-80
2024/01/28 13:14:25;;;;;;;3.60;3.30;;;;;;;;;;5049450;28;20298;-80
2024/01/28 13:16:52;;;;;;;6.03;3.67;;;;;;;;;;5050121;28;20241;-80
2024/01/28 13:19:20;;;;;;;4.80;3.43;;;;;;;;;;5041854;28;20241;-82
2024/01/28 13:21:47;;;;;;;7.03;4.57;;;;;;;;;;5049537;28;20244;-84
2024/01/28 13:24:15;;;;;;;4.13;2.77;;;;;;;;;;5053598;28;20202;-83
2024/01/28 13:26:42;;;;;;;3.57;3.27;;;;;;;;;;5045060;28;20221;-84
2024/01/28 13:29:09;;;;;;;7.03;3.73;;;;;;;;;;5044843;28;20198;-79
2024/01/28 13:31:37;;;;;;;4.53;3.10;;;;;;;;;;5049840;28;20237;-80
2024/01/28 13:34:04;;;;;;;5.73;3.53;;;;;;;;;;5052622;28;20202;-80
2024/01/28 13:36:32;;;;;;;5.77;3.60;;;;;;;;;;5051458;28;20234;-80
2024/01/28 13:38:59;;;;;;;3.53;3.23;;;;;;;;;;5052304;28;20206;-80
2024/01/28 13:41:26;;;;;;;7.00;3.47;;;;;;;;;;5051567;28;20260;-80
2024/01/28 13:43:53;;;;;;;4.03;3.23;;;;;;;;;;5052150;28;20586;-80
2024/01/28 13:46:20;;;;;;;9.00;3.83;;;;;;;;;;5052490;28;20226;-79
2024/01/28 13:48:47;;;;;;;4.30;3.33;;;;;;;;;;5052833;28;20214;-80
2024/01/28 13:51:14;;;;;;;4.57;3.37;;;;;;;;;;5047122;28;20225;-80
2024/01/28 13:53:43;;;;;;;5.63;3.60;;;;;;;;;;5052068;28;20205;-80
2024/01/28 13:56:10;;;;;;;7.20;3.40;;;;;;;;;;5051791;28;20617;-80
2024/01/28 13:58:37;;;;;;;6.30;3.63;;;;;;;;;;5051648;28;20210;-81
2024/01/28 14:01:04;;;;;;;7.20;3.20;;;;;;;;;;5047308;28;20245;-81
2024/01/28 14:03:32;;;;;;;5.93;3.70;;;;;;;;;;5051929;28;20206;-81
2024/01/28 14:05:59;;;;;;;3.40;2.90;;;;;;;;;;5051998;28;20253;-81
2024/01/28 14:08:27;;;;;;;6.53;3.27;;;;;;;;;;5052418;28;20225;-81
2024/01/28 14:10:55;;;;;;;3.13;2.87;;;;;;;;;;5041755;28;20230;-80
2024/01/28 14:13:22;;;;;;;3.37;3.17;;;;;;;;;;5046048;28;20233;-82
2024/01/28 14:15:49;;;;;;;4.17;3.40;;;;;;;;;;5051723;28;20295;-82
2024/01/28 14:18:16;;;;;;;3.43;3.03;;;;;;;;;;5052296;28;20226;-84
2024/01/28 14:20:43;;;;;;;7.60;3.30;;;;;;;;;;5050996;28;20244;-82
2024/01/28 14:23:10;;;;;;;4.10;2.80;;;;;;;;;;5047261;28;20221;-83
2024/01/28 14:25:37;;;;;;;3.90;3.50;;;;;;;;;;5051489;28;20242;-83
2024/01/28 14:28:06;;;;;;;3.17;2.87;;;;;;;;;;5051000;28;20203;-87
2024/01/28 14:30:34;;;;;;;3.90;3.13;;;;;;;;;;5050136;28;20242;-84
2024/01/28 14:33:01;;;;;;;5.30;3.53;;;;;;;;;;5044430;28;20754;-82
2024/01/28 14:35:28;;;;;;;5.17;3.30;;;;;;;;;;5049396;28;20234;-83
2024/01/28 14:37:55;;;;;;;7.70;3.43;;;;;;;;;;5052615;28;20226;-83